createdAt,value
2023-04-16T00:00:00.759Z,1009.17
2023-04-16T00:00:58.963Z,1009.10
2023-04-16T00:02:00.658Z,1009.19
2023-04-16T00:03:01.000Z,1009.15
2023-04-16T00:04:00.734Z,1009.14
2023-04-16T00:05:01.764Z,1009.13
2023-04-16T00:06:00.874Z,1009.16
2023-04-16T00:07:00.557Z,1009.18
2023-04-16T00:08:00.750Z,1009.13
2023-04-16T00:09:00.435Z,1009.10
2023-04-16T00:10:00.630Z,1009.17
2023-04-16T00:11:00.794Z,1009.17
2023-04-16T00:12:00.463Z,1009.17
2023-04-16T00:13:00.607Z,1009.15
2023-04-16T00:14:00.837Z,1009.21
2023-04-16T00:15:00.514Z,1009.25
2023-04-16T00:16:00.720Z,1009.21
2023-04-16T00:16:58.784Z,1009.20
2023-04-16T00:18:00.506Z,1009.27
2023-04-16T00:19:00.912Z,1009.22
2023-04-16T00:20:00.533Z,1009.26
2023-04-16T00:21:00.676Z,1009.31
2023-04-16T00:22:00.364Z,1009.32
2023-04-16T00:23:00.520Z,1009.27
2023-04-16T00:24:00.217Z,1009.25
2023-04-16T00:25:00.388Z,1009.31
2023-04-16T00:26:00.551Z,1009.29
2023-04-16T00:27:00.229Z,1009.31
2023-04-16T00:28:00.414Z,1009.23
2023-04-16T00:29:00.579Z,1009.27
2023-04-16T00:30:00.280Z,1009.33
2023-04-16T00:31:00.531Z,1009.23
2023-04-16T00:32:00.141Z,1009.28
2023-04-16T00:33:00.366Z,1009.31
2023-04-16T00:34:00.452Z,1009.25
2023-04-16T00:35:00.090Z,1009.28
2023-04-16T00:36:00.292Z,1009.26
2023-04-16T00:37:00.470Z,1009.24
2023-04-16T00:38:00.146Z,1009.23
2023-04-16T00:39:00.294Z,1009.25
2023-04-16T00:40:05.471Z,1009.28
2023-04-16T00:40:58.454Z,1009.26
2023-04-16T00:41:58.411Z,1009.30
2023-04-16T00:42:58.409Z,1009.26
2023-04-16T00:43:58.396Z,1009.27
2023-04-16T00:44:58.397Z,1009.29
2023-04-16T00:45:58.432Z,1009.26
2023-04-16T00:46:58.361Z,1009.27
2023-04-16T00:48:00.375Z,1009.29
2023-04-16T00:48:58.347Z,1009.23
2023-04-16T00:49:58.350Z,1009.28
2023-04-16T00:50:58.303Z,1009.28
2023-04-16T00:51:58.306Z,1009.30
2023-04-16T00:52:58.318Z,1009.29
2023-04-16T00:53:58.288Z,1009.33
2023-04-16T00:54:58.261Z,1009.34
2023-04-16T00:55:58.237Z,1009.32
2023-04-16T00:56:58.229Z,1009.36
2023-04-16T00:57:58.211Z,1009.27
2023-04-16T00:58:58.209Z,1009.30
2023-04-16T00:59:58.230Z,1009.26
2023-04-16T01:00:58.210Z,1009.36
2023-04-16T01:01:58.345Z,1009.29
2023-04-16T01:02:58.303Z,1009.34
2023-04-16T01:03:58.182Z,1009.34
2023-04-16T01:04:58.117Z,1009.27
2023-04-16T01:05:58.120Z,1009.38
2023-04-16T01:06:58.098Z,1009.37
2023-04-16T01:07:58.096Z,1009.38
2023-04-16T01:08:58.086Z,1009.38
2023-04-16T01:09:58.067Z,1009.36
2023-04-16T01:10:58.067Z,1009.41
2023-04-16T01:11:58.035Z,1009.38
2023-04-16T01:12:58.012Z,1009.40
2023-04-16T01:13:58.029Z,1009.43
2023-04-16T01:14:58.019Z,1009.43
2023-04-16T01:15:58.051Z,1009.42
2023-04-16T01:16:57.970Z,1009.42
2023-04-16T01:17:58.001Z,1009.42
2023-04-16T01:18:58.025Z,1009.44
2023-04-16T01:19:57.977Z,1009.47
2023-04-16T01:20:57.912Z,1009.49
2023-04-16T01:21:57.921Z,1009.49
2023-04-16T01:22:57.904Z,1009.49
2023-04-16T01:23:57.894Z,1009.48
2023-04-16T01:24:57.900Z,1009.48
2023-04-16T01:25:57.890Z,1009.46
2023-04-16T01:26:57.835Z,1009.44
2023-04-16T01:27:57.830Z,1009.43
2023-04-16T01:28:57.814Z,1009.51
2023-04-16T01:29:57.851Z,1009.48
2023-04-16T01:30:57.845Z,1009.45
2023-04-16T01:31:57.792Z,1009.50
2023-04-16T01:32:57.819Z,1009.54
2023-04-16T01:33:57.750Z,1009.54
2023-04-16T01:34:57.737Z,1009.57
2023-04-16T01:35:57.792Z,1009.54
2023-04-16T01:36:57.743Z,1009.56
2023-04-16T01:37:57.741Z,1009.53
2023-04-16T01:38:57.713Z,1009.55
2023-04-16T01:39:57.681Z,1009.51
2023-04-16T01:40:57.672Z,1009.53
2023-04-16T01:41:57.706Z,1009.56
2023-04-16T01:42:57.649Z,1009.55
2023-04-16T01:43:57.638Z,1009.50
2023-04-16T01:44:57.613Z,1009.52
2023-04-16T01:45:57.628Z,1009.53
2023-04-16T01:46:57.653Z,1009.50
2023-04-16T01:47:57.644Z,1009.49
2023-04-16T01:48:57.630Z,1009.51
2023-04-16T01:49:57.552Z,1009.53
2023-04-16T01:50:57.536Z,1009.55
2023-04-16T01:51:57.582Z,1009.57
2023-04-16T01:52:57.520Z,1009.56
2023-04-16T01:53:57.494Z,1009.58
2023-04-16T01:54:57.491Z,1009.55
2023-04-16T01:55:57.483Z,1009.57
2023-04-16T01:56:57.452Z,1009.61
2023-04-16T01:57:57.510Z,1009.60
2023-04-16T01:58:57.466Z,1009.60
2023-04-16T01:59:57.414Z,1009.60
2023-04-16T02:00:57.474Z,1009.61
2023-04-16T02:01:57.450Z,1009.58
2023-04-16T02:02:57.515Z,1009.63
2023-04-16T02:03:57.495Z,1009.62
2023-04-16T02:04:57.368Z,1009.57
2023-04-16T02:05:57.334Z,1009.56
2023-04-16T02:06:57.345Z,1009.56
2023-04-16T02:07:57.326Z,1009.59
2023-04-16T02:08:57.300Z,1009.57
2023-04-16T02:09:57.325Z,1009.59
2023-04-16T02:10:57.267Z,1009.61
2023-04-16T02:11:57.279Z,1009.60
2023-04-16T02:12:57.263Z,1009.66
2023-04-16T02:13:57.271Z,1009.64
2023-04-16T02:14:57.238Z,1009.63
2023-04-16T02:15:57.286Z,1009.65
2023-04-16T02:16:57.252Z,1009.67
2023-04-16T02:17:57.426Z,1009.66
2023-04-16T02:18:57.166Z,1009.66
2023-04-16T02:19:57.175Z,1009.63
2023-04-16T02:20:57.132Z,1009.66
2023-04-16T02:21:57.134Z,1009.63
2023-04-16T02:22:57.111Z,1009.66
2023-04-16T02:23:57.140Z,1009.65
2023-04-16T02:24:57.082Z,1009.64
2023-04-16T02:25:57.131Z,1009.64
2023-04-16T02:26:57.081Z,1009.64
2023-04-16T02:27:57.062Z,1009.68
2023-04-16T02:28:57.036Z,1009.67
2023-04-16T02:29:57.034Z,1009.66
2023-04-16T02:30:57.016Z,1009.69
2023-04-16T02:31:57.100Z,1009.66
2023-04-16T02:32:57.048Z,1009.73
2023-04-16T02:33:56.991Z,1009.74
2023-04-16T02:34:56.981Z,1009.69
2023-04-16T02:35:56.957Z,1009.75
2023-04-16T02:36:56.969Z,1009.72
2023-04-16T02:37:56.912Z,1009.72
2023-04-16T02:38:56.909Z,1009.80
2023-04-16T02:39:56.894Z,1009.75
2023-04-16T02:40:56.876Z,1009.78
2023-04-16T02:41:56.864Z,1009.80
2023-04-16T02:42:56.868Z,1009.76
2023-04-16T02:43:56.857Z,1009.73
2023-04-16T02:44:56.848Z,1009.78
2023-04-16T02:45:56.883Z,1009.78
2023-04-16T02:46:56.861Z,1009.79
2023-04-16T02:47:56.828Z,1009.80
2023-04-16T02:48:56.790Z,1009.81
2023-04-16T02:49:56.795Z,1009.82
2023-04-16T02:50:56.746Z,1009.81
2023-04-16T02:51:56.749Z,1009.82
2023-04-16T02:52:56.740Z,1009.81
2023-04-16T02:53:56.730Z,1009.86
2023-04-16T02:54:56.692Z,1009.86
2023-04-16T02:55:56.726Z,1009.80
2023-04-16T02:56:56.666Z,1009.84
2023-04-16T02:57:56.724Z,1009.85
2023-04-16T02:58:56.712Z,1009.82
2023-04-16T02:59:56.632Z,1009.84
2023-04-16T03:00:56.681Z,1009.85
2023-04-16T03:01:56.719Z,1009.85
2023-04-16T03:02:56.668Z,1009.89
2023-04-16T03:03:56.619Z,1009.83
2023-04-16T03:04:56.564Z,1009.84
2023-04-16T03:05:56.589Z,1009.87
2023-04-16T03:06:56.546Z,1009.85
2023-04-16T03:07:56.717Z,1009.89
2023-04-16T03:08:56.523Z,1009.88
2023-04-16T03:09:56.525Z,1009.91
2023-04-16T03:10:56.478Z,1009.89
2023-04-16T03:11:56.516Z,1009.95
2023-04-16T03:12:56.469Z,1009.92
2023-04-16T03:13:56.465Z,1009.88
2023-04-16T03:14:56.438Z,1009.92
2023-04-16T03:15:56.525Z,1009.93
2023-04-16T03:16:56.408Z,1009.96
2023-04-16T03:17:56.484Z,1009.94
2023-04-16T03:18:56.423Z,1009.94
2023-04-16T03:19:56.372Z,1009.92
2023-04-16T03:20:56.384Z,1009.94
2023-04-16T03:21:56.358Z,1009.97
2023-04-16T03:22:56.341Z,1009.89
2023-04-16T03:23:56.329Z,1009.96
2023-04-16T03:24:56.320Z,1009.95
2023-04-16T03:25:56.309Z,1009.93
2023-04-16T03:26:56.288Z,1009.95
2023-04-16T03:27:56.284Z,1009.95
2023-04-16T03:28:56.250Z,1009.91
2023-04-16T03:29:56.261Z,1009.96
2023-04-16T03:30:56.326Z,1009.91
2023-04-16T03:31:56.240Z,1009.92
2023-04-16T03:32:56.230Z,1009.93
2023-04-16T03:33:56.187Z,1009.94
2023-04-16T03:34:56.215Z,1009.96
2023-04-16T03:35:56.177Z,1009.93
2023-04-16T03:36:56.149Z,1009.95
2023-04-16T03:37:56.158Z,1009.98
2023-04-16T03:38:56.182Z,1010.01
2023-04-16T03:39:56.118Z,1010.00
2023-04-16T03:40:56.111Z,1010.04
2023-04-16T03:41:56.081Z,1010.01
2023-04-16T03:42:56.081Z,1010.03
2023-04-16T03:43:56.105Z,1010.06
2023-04-16T03:44:56.055Z,1010.02
2023-04-16T03:45:56.030Z,1010.06
2023-04-16T03:46:56.207Z,1010.06
2023-04-16T03:47:56.126Z,1010.10
2023-04-16T03:48:56.021Z,1010.08
2023-04-16T03:49:56.029Z,1010.16
2023-04-16T03:50:55.982Z,1010.10
2023-04-16T03:51:55.972Z,1010.14
2023-04-16T03:52:55.962Z,1010.14
2023-04-16T03:53:55.985Z,1010.11
2023-04-16T03:54:55.948Z,1010.18
2023-04-16T03:55:55.912Z,1010.18
2023-04-16T03:56:55.913Z,1010.22
2023-04-16T03:57:55.902Z,1010.21
2023-04-16T03:58:55.876Z,1010.25
2023-04-16T03:59:55.883Z,1010.19
2023-04-16T04:00:55.850Z,1010.27
2023-04-16T04:01:55.899Z,1010.27
2023-04-16T04:02:55.962Z,1010.22
2023-04-16T04:03:56.034Z,1010.32
2023-04-16T04:04:55.870Z,1010.30
2023-04-16T04:05:55.777Z,1010.31
2023-04-16T04:06:55.777Z,1010.29
2023-04-16T04:07:55.765Z,1010.35
2023-04-16T04:08:55.773Z,1010.37
2023-04-16T04:09:55.733Z,1010.34
2023-04-16T04:10:55.720Z,1010.38
2023-04-16T04:11:55.701Z,1010.35
2023-04-16T04:12:55.706Z,1010.37
2023-04-16T04:13:55.688Z,1010.37
2023-04-16T04:14:55.694Z,1010.35
2023-04-16T04:15:55.718Z,1010.39
2023-04-16T04:16:55.649Z,1010.42
2023-04-16T04:17:55.650Z,1010.41
2023-04-16T04:18:55.640Z,1010.46
2023-04-16T04:20:55.625Z,1010.46
2023-04-16T04:21:55.581Z,1010.51
2023-04-16T04:22:55.578Z,1010.53
2023-04-16T04:23:56.125Z,1010.50
2023-04-16T04:24:55.545Z,1010.41
2023-04-16T04:25:55.567Z,1010.52
2023-04-16T04:26:55.533Z,1010.54
2023-04-16T04:27:55.497Z,1010.51
2023-04-16T04:28:55.474Z,1010.58
2023-04-16T04:29:55.468Z,1010.56
2023-04-16T04:30:55.479Z,1010.55
2023-04-16T04:31:55.475Z,1010.57
2023-04-16T04:32:55.457Z,1010.65
2023-04-16T04:33:55.427Z,1010.57
2023-04-16T04:34:55.399Z,1010.55
2023-04-16T04:35:55.376Z,1010.60
2023-04-16T04:36:55.401Z,1010.51
2023-04-16T04:37:55.367Z,1010.59
2023-04-16T04:38:55.358Z,1010.58
2023-04-16T04:39:55.340Z,1010.59
2023-04-16T04:40:55.347Z,1010.61
2023-04-16T04:41:55.331Z,1010.55
2023-04-16T04:42:55.308Z,1010.64
2023-04-16T04:43:55.277Z,1010.53
2023-04-16T04:44:55.288Z,1010.60
2023-04-16T04:45:55.284Z,1010.59
2023-04-16T04:46:55.280Z,1010.60
2023-04-16T04:47:55.241Z,1010.60
2023-04-16T04:48:55.231Z,1010.56
2023-04-16T04:49:55.208Z,1010.66
2023-04-16T04:50:55.195Z,1010.64
2023-04-16T04:51:55.205Z,1010.67
2023-04-16T04:52:55.157Z,1010.69
2023-04-16T04:53:55.154Z,1010.66
2023-04-16T04:54:55.162Z,1010.65
2023-04-16T04:55:57.600Z,1010.63
2023-04-16T04:56:56.148Z,1010.69
2023-04-16T04:57:55.126Z,1010.71
2023-04-16T04:58:55.087Z,1010.70
2023-04-16T04:59:55.086Z,1010.69
2023-04-16T05:00:55.117Z,1010.70
2023-04-16T05:01:55.102Z,1010.72
2023-04-16T05:02:55.129Z,1010.68
2023-04-16T05:03:55.143Z,1010.77
2023-04-16T05:04:55.076Z,1010.81
2023-04-16T05:05:55.025Z,1010.79
2023-04-16T05:06:55.000Z,1010.78
2023-04-16T05:07:55.000Z,1010.76
2023-04-16T05:08:54.976Z,1010.79
2023-04-16T05:09:54.972Z,1010.79
2023-04-16T05:10:54.994Z,1010.85
2023-04-16T05:11:54.963Z,1010.85
2023-04-16T05:12:54.939Z,1010.86
2023-04-16T05:13:54.935Z,1010.88
2023-04-16T05:14:54.914Z,1010.88
2023-04-16T05:15:54.911Z,1010.86
2023-04-16T05:16:54.884Z,1010.85
2023-04-16T05:17:54.916Z,1010.89
2023-04-16T05:18:54.858Z,1010.94
2023-04-16T05:19:54.824Z,1010.93
2023-04-16T05:20:54.814Z,1010.99
2023-04-16T05:21:54.781Z,1010.89
2023-04-16T05:22:54.800Z,1010.98
2023-04-16T05:23:54.813Z,1011.00
2023-04-16T05:24:54.791Z,1011.01
2023-04-16T05:25:54.757Z,1011.04
2023-04-16T05:26:54.728Z,1011.04
2023-04-16T05:27:54.723Z,1011.09
2023-04-16T05:28:54.760Z,1011.07
2023-04-16T05:29:54.724Z,1011.10
2023-04-16T05:30:54.762Z,1011.07
2023-04-16T05:31:54.682Z,1011.08
2023-04-16T05:32:54.763Z,1011.12
2023-04-16T05:33:54.692Z,1011.10
2023-04-16T05:34:54.679Z,1011.15
2023-04-16T05:35:54.621Z,1011.15
2023-04-16T05:36:54.615Z,1011.13
2023-04-16T05:37:54.576Z,1011.14
2023-04-16T05:38:54.588Z,1011.17
2023-04-16T05:39:54.594Z,1011.19
2023-04-16T05:40:54.541Z,1011.12
2023-04-16T05:41:54.528Z,1011.19
2023-04-16T05:42:54.527Z,1011.23
2023-04-16T05:43:54.496Z,1011.18
2023-04-16T05:44:54.523Z,1011.13
2023-04-16T05:45:54.538Z,1011.20
2023-04-16T05:46:54.480Z,1011.21
2023-04-16T05:47:54.529Z,1011.23
2023-04-16T05:48:54.438Z,1011.32
2023-04-16T05:49:54.442Z,1011.22
2023-04-16T05:50:54.458Z,1011.26
2023-04-16T05:51:54.432Z,1011.28
2023-04-16T05:52:54.380Z,1011.25
2023-04-16T05:53:54.374Z,1011.29
2023-04-16T05:54:54.383Z,1011.23
2023-04-16T05:55:54.370Z,1011.21
2023-04-16T05:56:54.390Z,1011.23
2023-04-16T05:57:54.339Z,1011.25
2023-04-16T05:58:54.321Z,1011.26
2023-04-16T05:59:54.304Z,1011.28
2023-04-16T06:00:54.292Z,1011.32
2023-04-16T06:01:54.353Z,1011.32
2023-04-16T06:02:54.376Z,1011.32
2023-04-16T06:03:54.371Z,1011.32
2023-04-16T06:04:54.251Z,1011.35
2023-04-16T06:05:54.273Z,1011.30
2023-04-16T06:06:54.201Z,1011.34
2023-04-16T06:07:54.235Z,1011.38
2023-04-16T06:08:54.171Z,1011.36
2023-04-16T06:09:54.173Z,1011.34
2023-04-16T06:10:54.189Z,1011.35
2023-04-16T06:11:54.149Z,1011.36
2023-04-16T06:12:54.181Z,1011.36
2023-04-16T06:13:54.121Z,1011.36
2023-04-16T06:14:54.120Z,1011.36
2023-04-16T06:15:54.132Z,1011.37
2023-04-16T06:16:54.097Z,1011.25
2023-04-16T06:17:54.104Z,1011.33
2023-04-16T06:18:54.072Z,1011.32
2023-04-16T06:19:54.039Z,1011.31
2023-04-16T06:20:54.028Z,1011.29
2023-04-16T06:21:54.027Z,1011.30
2023-04-16T06:22:54.027Z,1011.37
2023-04-16T06:23:54.016Z,1011.40
2023-04-16T06:24:53.973Z,1011.38
2023-04-16T06:25:53.975Z,1011.38
2023-04-16T06:26:53.946Z,1011.39
2023-04-16T06:27:53.931Z,1011.40
2023-04-16T06:28:53.916Z,1011.46
2023-04-16T06:29:53.913Z,1011.46
2023-04-16T06:30:53.885Z,1011.46
2023-04-16T06:31:53.945Z,1011.44
2023-04-16T06:32:53.952Z,1011.49
2023-04-16T06:33:53.856Z,1011.47
2023-04-16T06:34:53.874Z,1011.46
2023-04-16T06:35:53.831Z,1011.46
2023-04-16T06:36:53.821Z,1011.52
2023-04-16T06:37:53.816Z,1011.51
2023-04-16T06:38:53.833Z,1011.56
2023-04-16T06:39:53.799Z,1011.58
2023-04-16T06:41:00.871Z,1011.53
2023-04-16T06:41:55.546Z,1011.58
2023-04-16T06:42:55.794Z,1011.59
2023-04-16T06:43:55.429Z,1011.57
2023-04-16T06:44:55.601Z,1011.53
2023-04-16T06:45:55.274Z,1011.54
2023-04-16T06:46:55.465Z,1011.54
2023-04-16T06:47:55.627Z,1011.50
2023-04-16T06:48:55.229Z,1011.52
2023-04-16T06:49:55.421Z,1011.53
2023-04-16T06:50:55.723Z,1011.52
2023-04-16T06:51:55.241Z,1011.51
2023-04-16T06:52:55.422Z,1011.52
2023-04-16T06:53:55.581Z,1011.55
2023-04-16T06:54:55.249Z,1011.56
2023-04-16T06:55:53.594Z,1011.54
2023-04-16T06:56:55.287Z,1011.61
2023-04-16T06:57:55.431Z,1011.59
2023-04-16T06:58:55.070Z,1011.58
2023-04-16T06:59:56.277Z,1011.58
2023-04-16T07:00:55.701Z,1011.61
2023-04-16T07:01:55.447Z,1011.61
2023-04-16T07:02:58.289Z,1011.67
2023-04-16T07:03:55.494Z,1011.66
2023-04-16T07:04:55.404Z,1011.64
2023-04-16T07:05:55.084Z,1011.66
2023-04-16T07:06:55.239Z,1011.72
2023-04-16T07:07:55.402Z,1011.69
2023-04-16T07:08:55.079Z,1011.74
2023-04-16T07:09:55.242Z,1011.70
2023-04-16T07:10:54.947Z,1011.65
2023-04-16T07:11:55.213Z,1011.67
2023-04-16T07:12:54.888Z,1011.68
2023-04-16T07:13:55.143Z,1011.73
2023-04-16T07:14:55.265Z,1011.70
2023-04-16T07:15:54.929Z,1011.71
2023-04-16T07:16:53.348Z,1011.70
2023-04-16T07:17:55.009Z,1011.72
2023-04-16T07:18:55.164Z,1011.73
2023-04-16T07:19:54.795Z,1011.74
2023-04-16T07:20:54.985Z,1011.75
2023-04-16T07:21:53.267Z,1011.77
2023-04-16T07:22:54.976Z,1011.75
2023-04-16T07:23:55.133Z,1011.81
2023-04-16T07:24:54.797Z,1011.84
2023-04-16T07:25:54.958Z,1011.86
2023-04-16T07:26:53.195Z,1011.80
2023-04-16T07:27:54.885Z,1011.85
2023-04-16T07:28:55.021Z,1011.88
2023-04-16T07:29:54.724Z,1011.91
2023-04-16T07:30:54.889Z,1011.85
2023-04-16T07:31:55.117Z,1011.88
2023-04-16T07:32:54.777Z,1011.87
2023-04-16T07:33:54.908Z,1011.88
2023-04-16T07:34:55.084Z,1011.91
2023-04-16T07:35:54.746Z,1011.89
2023-04-16T07:36:54.933Z,1011.90
2023-04-16T07:37:54.609Z,1011.92
2023-04-16T07:38:54.815Z,1011.94
2023-04-16T07:39:56.870Z,1011.96
2023-04-16T07:40:54.660Z,1011.94
2023-04-16T07:41:54.787Z,1011.96
2023-04-16T07:42:54.961Z,1011.94
2023-04-16T07:43:54.646Z,1011.95
2023-04-16T07:44:54.783Z,1011.99
2023-04-16T07:45:54.523Z,1011.97
2023-04-16T07:46:54.725Z,1012.02
2023-04-16T07:47:54.831Z,1012.04
2023-04-16T07:48:54.485Z,1012.04
2023-04-16T07:49:54.660Z,1012.02
2023-04-16T07:50:54.829Z,1012.02
2023-04-16T07:51:54.540Z,1012.08
2023-04-16T07:52:54.652Z,1012.11
2023-04-16T07:53:54.857Z,1012.05
2023-04-16T07:54:54.520Z,1012.06
2023-04-16T07:55:54.722Z,1012.08
2023-04-16T07:56:54.335Z,1012.12
2023-04-16T07:57:52.810Z,1012.09
2023-04-16T07:58:54.473Z,1012.11
2023-04-16T07:59:54.642Z,1012.14
2023-04-16T08:00:54.316Z,1012.13
2023-04-16T08:01:54.606Z,1012.12
2023-04-16T08:02:52.927Z,1012.12
2023-04-16T08:03:54.584Z,1012.17
2023-04-16T08:04:54.721Z,1012.14
2023-04-16T08:05:54.308Z,1012.16
2023-04-16T08:06:54.523Z,1012.19
2023-04-16T08:07:54.377Z,1012.19
2023-04-16T08:08:54.554Z,1012.21
2023-04-16T08:09:54.269Z,1012.18
2023-04-16T08:10:54.426Z,1012.22
2023-04-16T08:11:54.574Z,1012.19
2023-04-16T08:12:54.247Z,1012.24
2023-04-16T08:13:54.432Z,1012.23
2023-04-16T08:14:54.602Z,1012.23
2023-04-16T08:15:54.302Z,1012.23
2023-04-16T08:16:54.413Z,1012.23
2023-04-16T08:17:54.107Z,1012.22
2023-04-16T08:18:54.283Z,1012.18
2023-04-16T08:19:54.458Z,1012.22
2023-04-16T08:20:54.185Z,1012.25
2023-04-16T08:21:54.333Z,1012.23
2023-04-16T08:22:53.989Z,1012.26
2023-04-16T08:23:54.180Z,1012.31
2023-04-16T08:24:54.348Z,1012.34
2023-04-16T08:25:54.144Z,1012.34
2023-04-16T08:26:55.800Z,1012.36
2023-04-16T08:27:53.401Z,1012.37
2023-04-16T08:28:54.045Z,1012.36
2023-04-16T08:29:55.257Z,1012.39
2023-04-16T08:30:54.017Z,1012.40
2023-04-16T08:31:54.227Z,1012.39
2023-04-16T08:32:53.876Z,1012.44
2023-04-16T08:33:54.035Z,1012.40
2023-04-16T08:34:54.226Z,1012.42
2023-04-16T08:35:53.944Z,1012.45
2023-04-16T08:36:54.127Z,1012.41
2023-04-16T08:37:54.313Z,1012.41
2023-04-16T08:38:52.314Z,1012.45
2023-04-16T08:39:53.950Z,1012.41
2023-04-16T08:40:54.122Z,1012.48
2023-04-16T08:41:53.800Z,1012.44
2023-04-16T08:42:53.986Z,1012.49
2023-04-16T08:43:54.215Z,1012.54
2023-04-16T08:44:53.922Z,1012.52
2023-04-16T08:45:54.134Z,1012.56
2023-04-16T08:46:53.891Z,1012.53
2023-04-16T08:47:54.111Z,1012.54
2023-04-16T08:48:54.134Z,1012.56
2023-04-16T08:49:53.833Z,1012.54
2023-04-16T08:50:55.470Z,1012.56
2023-04-16T08:51:53.694Z,1012.57
2023-04-16T08:52:53.879Z,1012.58
2023-04-16T08:53:54.062Z,1012.61
2023-04-16T08:54:56.585Z,1012.59
2023-04-16T08:55:54.741Z,1012.60
2023-04-16T08:56:53.930Z,1012.60
2023-04-16T08:57:53.589Z,1012.61
2023-04-16T08:58:53.782Z,1012.61
2023-04-16T08:59:53.951Z,1012.60
2023-04-16T09:00:53.603Z,1012.61
2023-04-16T09:01:53.877Z,1012.57
2023-04-16T09:02:54.194Z,1012.63
2023-04-16T09:03:53.817Z,1012.62
2023-04-16T09:04:53.938Z,1012.62
2023-04-16T09:05:53.484Z,1012.67
2023-04-16T09:06:53.663Z,1012.62
2023-04-16T09:07:53.806Z,1012.66
2023-04-16T09:08:53.475Z,1012.62
2023-04-16T09:09:53.662Z,1012.64
2023-04-16T09:10:53.828Z,1012.67
2023-04-16T09:11:53.485Z,1012.70
2023-04-16T09:12:53.700Z,1012.71
2023-04-16T09:13:53.371Z,1012.73
2023-04-16T09:14:53.552Z,1012.68
2023-04-16T09:15:53.798Z,1012.71
2023-04-16T09:16:53.456Z,1012.73
2023-04-16T09:17:53.611Z,1012.72
2023-04-16T09:18:53.732Z,1012.64
2023-04-16T09:19:53.388Z,1012.70
2023-04-16T09:20:53.576Z,1012.74
2023-04-16T09:21:51.747Z,1012.74
2023-04-16T09:22:53.430Z,1012.73
2023-04-16T09:23:53.633Z,1012.78
2023-04-16T09:24:53.286Z,1012.79
2023-04-16T09:25:53.475Z,1012.81
2023-04-16T09:26:53.664Z,1012.82
2023-04-16T09:27:53.369Z,1012.80
2023-04-16T09:28:53.541Z,1012.85
2023-04-16T09:29:53.203Z,1012.84
2023-04-16T09:30:53.393Z,1012.86
2023-04-16T09:31:53.629Z,1012.81
2023-04-16T09:32:53.309Z,1012.88
2023-04-16T09:33:53.418Z,1012.88
2023-04-16T09:34:53.104Z,1012.92
2023-04-16T09:35:53.292Z,1012.85
2023-04-16T09:36:54.454Z,1012.91
2023-04-16T09:37:51.526Z,1012.88
2023-04-16T09:38:54.484Z,1012.88
2023-04-16T09:39:53.401Z,1012.91
2023-04-16T09:40:53.159Z,1012.92
2023-04-16T09:41:53.320Z,1012.93
2023-04-16T09:42:53.115Z,1012.98
2023-04-16T09:43:53.159Z,1012.94
2023-04-16T09:44:53.331Z,1012.98
2023-04-16T09:45:53.064Z,1012.95
2023-04-16T09:46:53.170Z,1012.93
2023-04-16T09:47:53.396Z,1012.96
2023-04-16T09:48:53.149Z,1013.03
2023-04-16T09:49:53.255Z,1013.00
2023-04-16T09:50:52.921Z,1013.01
2023-04-16T09:51:53.149Z,1012.95
2023-04-16T09:52:53.239Z,1012.99
2023-04-16T09:53:53.027Z,1012.99
2023-04-16T09:54:53.164Z,1012.98
2023-04-16T09:55:52.842Z,1012.98
2023-04-16T09:56:53.021Z,1012.96
2023-04-16T09:57:53.226Z,1012.96
2023-04-16T09:58:52.877Z,1013.01
2023-04-16T09:59:53.081Z,1012.98
2023-04-16T10:00:52.870Z,1013.02
2023-04-16T10:01:53.280Z,1012.99
2023-04-16T10:02:54.106Z,1013.04
2023-04-16T10:03:53.056Z,1013.05
2023-04-16T10:04:53.332Z,1013.03
2023-04-16T10:05:53.142Z,1013.03
2023-04-16T10:06:52.828Z,1013.07
2023-04-16T10:07:53.090Z,1013.00
2023-04-16T10:08:52.784Z,1013.04
2023-04-16T10:09:52.952Z,1012.98
2023-04-16T10:10:52.636Z,1013.02
2023-04-16T10:11:52.810Z,1013.03
2023-04-16T10:12:52.979Z,1013.05
2023-04-16T10:13:52.659Z,1013.04
2023-04-16T10:14:52.860Z,1013.11
2023-04-16T10:15:53.021Z,1013.10
2023-04-16T10:16:52.738Z,1013.07
2023-04-16T10:17:52.945Z,1013.15
2023-04-16T10:18:52.524Z,1013.07
2023-04-16T10:19:51.013Z,1013.10
2023-04-16T10:20:52.682Z,1013.15
2023-04-16T10:21:52.830Z,1013.10
2023-04-16T10:22:52.478Z,1013.17
2023-04-16T10:23:52.689Z,1013.12
2023-04-16T10:24:50.920Z,1013.17
2023-04-16T10:25:52.589Z,1013.17
2023-04-16T10:26:52.761Z,1013.17
2023-04-16T10:27:52.444Z,1013.11
2023-04-16T10:28:52.615Z,1013.12
2023-04-16T10:29:50.859Z,1013.12
2023-04-16T10:30:52.703Z,1013.09
2023-04-16T10:31:52.672Z,1013.11
2023-04-16T10:32:52.388Z,1013.14
2023-04-16T10:33:52.512Z,1013.07
2023-04-16T10:34:53.475Z,1013.08
2023-04-16T10:36:06.745Z,1013.10
2023-04-16T10:36:53.288Z,1013.05
2023-04-16T10:37:52.460Z,1013.10
2023-04-16T10:38:52.723Z,1013.01
2023-04-16T10:39:52.323Z,1013.04
2023-04-16T10:40:52.498Z,1013.02
2023-04-16T10:41:52.726Z,1013.04
2023-04-16T10:42:52.379Z,1012.97
2023-04-16T10:43:52.537Z,1013.03
2023-04-16T10:44:52.182Z,1013.03
2023-04-16T10:45:52.427Z,1013.02
2023-04-16T10:46:52.560Z,1013.10
2023-04-16T10:47:52.261Z,1013.08
2023-04-16T10:48:52.375Z,1013.09
2023-04-16T10:49:52.555Z,1013.11
2023-04-16T10:50:52.304Z,1013.09
2023-04-16T10:51:52.394Z,1013.08
2023-04-16T10:52:52.065Z,1013.14
2023-04-16T10:53:52.289Z,1013.15
2023-04-16T10:54:52.496Z,1013.09
2023-04-16T10:55:52.134Z,1013.10
2023-04-16T10:56:53.307Z,1013.12
2023-04-16T10:57:52.495Z,1013.18
2023-04-16T10:58:52.172Z,1013.18
2023-04-16T10:59:52.373Z,1013.18
2023-04-16T11:00:52.026Z,1013.18
2023-04-16T11:01:52.308Z,1013.20
2023-04-16T11:02:51.556Z,1013.21
2023-04-16T11:03:51.580Z,1013.23
2023-04-16T11:04:52.151Z,1013.25
2023-04-16T11:05:52.296Z,1013.24
2023-04-16T11:06:51.971Z,1013.26
2023-04-16T11:07:52.148Z,1013.24
2023-04-16T11:08:54.950Z,1013.28
2023-04-16T11:09:51.984Z,1013.27
2023-04-16T11:10:52.144Z,1013.24
2023-04-16T11:11:51.817Z,1013.30
2023-04-16T11:12:51.982Z,1013.32
2023-04-16T11:13:52.134Z,1013.35
2023-04-16T11:14:51.795Z,1013.34
2023-04-16T11:15:52.028Z,1013.34
2023-04-16T11:16:52.170Z,1013.35
2023-04-16T11:17:52.087Z,1013.33
2023-04-16T11:18:52.077Z,1013.36
2023-04-16T11:19:53.583Z,1013.36
2023-04-16T11:20:50.194Z,1013.34
2023-04-16T11:21:51.904Z,1013.34
2023-04-16T11:22:52.066Z,1013.36
2023-04-16T11:23:51.723Z,1013.35
2023-04-16T11:24:51.881Z,1013.32
2023-04-16T11:25:50.105Z,1013.37
2023-04-16T11:26:51.803Z,1013.35
2023-04-16T11:27:52.033Z,1013.35
2023-04-16T11:28:51.654Z,1013.38
2023-04-16T11:29:51.845Z,1013.33
2023-04-16T11:30:50.050Z,1013.38
2023-04-16T11:31:51.820Z,1013.40
2023-04-16T11:32:51.923Z,1013.37
2023-04-16T11:33:51.590Z,1013.42
2023-04-16T11:34:51.749Z,1013.42
2023-04-16T11:35:51.918Z,1013.42
2023-04-16T11:36:51.643Z,1013.44
2023-04-16T11:37:51.795Z,1013.42
2023-04-16T11:38:51.463Z,1013.40
2023-04-16T11:39:51.650Z,1013.48
2023-04-16T11:40:51.806Z,1013.47
2023-04-16T11:41:51.533Z,1013.50
2023-04-16T11:42:51.724Z,1013.42
2023-04-16T11:43:51.914Z,1013.48
2023-04-16T11:44:51.572Z,1013.46
2023-04-16T11:45:51.748Z,1013.49
2023-04-16T11:46:51.431Z,1013.50
2023-04-16T11:47:51.789Z,1013.51
2023-04-16T11:48:51.772Z,1013.48
2023-04-16T11:49:51.448Z,1013.51
2023-04-16T11:50:51.650Z,1013.51
2023-04-16T11:51:51.384Z,1013.49
2023-04-16T11:52:51.635Z,1013.56
2023-04-16T11:53:51.273Z,1013.48
2023-04-16T11:54:51.424Z,1013.53
2023-04-16T11:55:51.594Z,1013.53
2023-04-16T11:56:51.408Z,1013.56
2023-04-16T11:57:51.790Z,1013.63
2023-04-16T11:58:51.282Z,1013.56
2023-04-16T12:00:01.377Z,1013.57
2023-04-16T12:00:52.663Z,1013.59
2023-04-16T12:01:51.642Z,1013.57
2023-04-16T12:02:51.835Z,1013.58
2023-04-16T12:03:51.467Z,1013.58
2023-04-16T12:04:51.418Z,1013.62
2023-04-16T12:05:51.547Z,1013.63